Time;durP1;ratioP1;P1;durP2;ratioP2;P2;SDS_P1;SDS_P2;PMS_P1;PMS_P2;Temp;Humidity;BMP_temperature;BMP_pressure;BME280_temperature;BME280_humidity;BME280_pressure;Samples;Min_cycle;Max_cycle;Signal;HPM_P1;HPM_P2
2021/10/02 00:31:51;;;;;;;;;;;;;;;13.60;88.93;98678.34;5042300;27;102998;-66
2021/10/02 00:37:26;;;;;;;;;;;;;;;13.59;89.79;98679.31;5089310;27;104393;-66
2021/10/02 00:45:26;;;;;;;;;;;;;;;13.66;89.24;98686.63;5056875;27;102807;-66
2021/10/02 00:47:56;;;;;;;;;;;;;;;13.73;88.43;98679.81;5066491;27;103221;-66
2021/10/02 00:50:24;;;;;;;;;;;;;;;13.44;90.82;98693.88;5091419;27;103178;-67
2021/10/02 00:52:52;;;;;;;;;;;;;;;13.30;91.53;98692.38;5089451;27;102658;-67
2021/10/02 00:55:19;;;;;;;;;;;;;;;13.39;90.56;98688.13;5095045;27;102686;-67
2021/10/02 00:57:47;;;;;;;;;;;;;;;13.30;90.93;98689.72;5067188;27;103974;-66
2021/10/02 01:00:15;;;;;;;;;;;;;;;13.42;90.40;98693.19;5091542;27;103162;-67
2021/10/02 01:02:49;;;;;;;;;;;;;;;13.54;90.51;98689.47;5059829;27;102775;-66
2021/10/02 01:05:33;;;;;;;;;;;;;;;13.56;90.32;98688.38;5090360;27;102747;-67
2021/10/02 01:08:04;;;;;;;;;;;;;;;13.54;90.56;98676.19;5084996;27;102892;-67
2021/10/02 01:10:38;;;;;;;;;;;;;;;13.51;91.08;98685.25;5078100;27;103023;-67
2021/10/02 01:13:15;;;;;;;;;;;;;;;13.65;90.20;98684.94;5056424;27;102690;-66
2021/10/02 01:15:47;;;;;;;;;;;;;;;13.68;89.45;98683.84;5080146;27;102846;-67
2021/10/02 01:18:16;;;;;;;;;;;;;;;13.73;89.33;98682.47;5076612;27;103915;-66
2021/10/02 01:21:05;;;;;;;;;;;;;;;13.73;89.31;98682.47;5073713;27;103236;-66
2021/10/02 01:23:42;;;;;;;;;;;;;;;13.75;88.38;98682.34;5025920;27;102882;-66
2021/10/02 01:26:26;;;;;;;;;;;;;;;13.72;87.43;98687.94;5074491;27;103137;-67
2021/10/02 01:28:58;;;;;;;;;;;;;;;13.69;86.61;98681.06;5074899;27;103670;-66
2021/10/02 01:31:31;;;;;;;;;;;;;;;13.56;88.18;98675.09;5075564;27;103199;-67
2021/10/02 01:34:03;;;;;;;;;;;;;;;13.61;88.22;98672.06;5043534;27;102953;-66
2021/10/02 01:36:40;;;;;;;;;;;;;;;13.46;90.56;98683.97;5056095;27;104109;-66
2021/10/02 01:47:29;;;;;;;;;;;;;;;13.44;90.69;98665.53;5074493;27;102874;-66
2021/10/02 01:49:58;;;;;;;;;;;;;;;13.43;90.13;98669.16;5074384;27;103444;-67
2021/10/02 01:52:28;;;;;;;;;;;;;;;13.39;90.77;98672.22;5075755;27;103139;-66
2021/10/02 01:54:57;;;;;;;;;;;;;;;13.26;91.33;98670.56;5061852;27;102832;-67
2021/10/02 01:57:28;;;;;;;;;;;;;;;13.15;92.49;98667.97;5077984;27;102744;-67
2021/10/02 01:59:58;;;;;;;;;;;;;;;13.20;92.26;98672.88;5078465;27;103221;-67
2021/10/02 02:02:27;;;;;;;;;;;;;;;13.15;91.95;98665.31;5069842;27;103154;-68
2021/10/02 02:04:56;;;;;;;;;;;;;;;13.23;91.69;98668.16;5079211;27;102611;-67
2021/10/02 02:07:25;;;;;;;;;;;;;;;13.30;91.16;98669.31;5057256;27;103293;-67
2021/10/02 02:09:55;;;;;;;;;;;;;;;13.41;90.89;98664.94;5055852;27;104610;-67
2021/10/02 02:12:23;;;;;;;;;;;;;;;13.49;89.53;98657.19;5074895;27;103125;-67
2021/10/02 02:14:52;;;;;;;;;;;;;;;13.51;88.47;98649.91;5071658;27;102669;-68
2021/10/02 02:17:23;;;;;;;;;;;;;;;13.52;87.89;98638.34;5075267;27;104017;-67
2021/10/02 02:19:51;;;;;;;;;;;;;;;13.18;89.24;98635.88;5054598;27;103302;-67
2021/10/02 02:22:22;;;;;;;;;;;;;;;12.99;91.69;98642.81;5073711;27;102979;-67
2021/10/02 02:24:50;;;;;;;;;;;;;;;12.98;92.48;98639.31;5053292;27;102823;-67
2021/10/02 02:27:18;;;;;;;;;;;;;;;13.03;93.09;98633.63;5076578;27;103638;-67
2021/10/02 02:29:48;;;;;;;;;;;;;;;13.04;93.65;98643.28;5071864;27;104077;-67
2021/10/02 02:32:17;;;;;;;;;;;;;;;12.94;93.73;98635.22;5074677;27;103005;-67
2021/10/02 02:34:47;;;;;;;;;;;;;;;12.86;94.08;98631.53;5055969;27;102653;-67
2021/10/02 02:37:14;;;;;;;;;;;;;;;12.71;95.45;98638.94;5072605;27;104398;-67
2021/10/02 02:39:43;;;;;;;;;;;;;;;12.70;95.53;98630.16;5073470;27;103875;-67
2021/10/02 02:42:11;;;;;;;;;;;;;;;12.63;96.33;98630.78;5074690;27;103600;-67
2021/10/02 02:44:39;;;;;;;;;;;;;;;12.82;95.45;98641.56;5068673;27;102918;-67
2021/10/02 02:47:08;;;;;;;;;;;;;;;12.95;94.32;98644.88;5071004;27;103281;-67
2021/10/02 02:49:42;;;;;;;;;;;;;;;12.97;93.86;98645.59;5051272;27;104563;-67
2021/10/02 02:52:15;;;;;;;;;;;;;;;13.01;93.42;98654.13;5071791;27;103754;-67
2021/10/02 02:54:47;;;;;;;;;;;;;;;12.98;93.10;98647.28;5076649;27;102766;-67
2021/10/02 02:57:17;;;;;;;;;;;;;;;13.03;92.91;98633.63;5076452;27;102649;-67
2021/10/02 02:59:46;;;;;;;;;;;;;;;12.97;94.12;98634.97;5055057;27;103576;-67
2021/10/02 03:02:17;;;;;;;;;;;;;;;12.97;93.53;98623.56;5077307;27;103160;-67
2021/10/02 03:04:47;;;;;;;;;;;;;;;13.09;93.05;98626.03;5076678;27;102787;-67
2021/10/02 03:07:19;;;;;;;;;;;;;;;13.20;92.52;98630.44;5057384;27;102723;-67
2021/10/02 03:09:48;;;;;;;;;;;;;;;13.12;91.17;98628.44;5070590;27;103253;-67
2021/10/02 03:12:16;;;;;;;;;;;;;;;12.73;95.18;98626.41;5074273;27;103195;-67
2021/10/02 03:14:46;;;;;;;;;;;;;;;12.71;95.24;98633.66;5052437;27;103773;-67
2021/10/02 03:17:14;;;;;;;;;;;;;;;12.72;95.11;98640.63;5076046;27;102723;-67
2021/10/02 03:19:43;;;;;;;;;;;;;;;12.83;93.83;98637.91;5056610;27;102989;-67
2021/10/02 03:22:11;;;;;;;;;;;;;;;12.96;93.07;98641.25;5055996;27;103817;-67
2021/10/02 03:24:41;;;;;;;;;;;;;;;12.96;92.45;98632.47;5075133;27;102615;-67
2021/10/02 03:27:09;;;;;;;;;;;;;;;12.76;94.31;98637.59;5055431;27;102966;-67
2021/10/02 03:29:38;;;;;;;;;;;;;;;12.77;94.39;98641.09;5073930;27;103351;-67
2021/10/02 03:32:07;;;;;;;;;;;;;;;12.56;95.67;98641.03;5074553;27;103151;-67
2021/10/02 03:34:35;;;;;;;;;;;;;;;12.47;96.16;98640.94;5074842;27;102570;-67
2021/10/02 03:37:04;;;;;;;;;;;;;;;12.43;97.14;98644.81;5057591;27;102760;-67
2021/10/02 03:39:32;;;;;;;;;;;;;;;12.61;96.01;98646.78;5075484;27;102953;-67
2021/10/02 03:42:05;;;;;;;;;;;;;;;12.75;94.95;98649.16;5069351;27;103158;-67
2021/10/02 03:44:33;;;;;;;;;;;;;;;12.80;94.48;98651.44;5072101;27;102608;-67
2021/10/02 03:47:01;;;;;;;;;;;;;;;12.86;93.94;98653.59;5053682;27;102963;-66
2021/10/02 03:49:29;;;;;;;;;;;;;;;12.89;93.36;98644.53;5078746;27;102995;-66
2021/10/02 03:51:57;;;;;;;;;;;;;;;12.77;94.00;98646.41;5052377;27;103236;-67
2021/10/02 03:54:24;;;;;;;;;;;;;;;12.84;93.84;98636.97;5075324;27;103040;-67
2021/10/02 03:56:52;;;;;;;;;;;;;;;12.76;94.07;98636.75;5071351;27;102783;-66
2021/10/02 03:59:21;;;;;;;;;;;;;;;12.74;94.79;98638.69;5074814;27;103273;-67
2021/10/02 04:01:49;;;;;;;;;;;;;;;12.66;95.36;98641.13;5057219;27;103303;-67
2021/10/02 04:04:17;;;;;;;;;;;;;;;12.67;95.35;98648.09;5077123;27;102535;-67
2021/10/02 04:06:45;;;;;;;;;;;;;;;12.74;94.93;98650.13;5070193;27;102989;-67
2021/10/02 04:09:13;;;;;;;;;;;;;;;12.82;94.61;98646.88;5050842;27;103263;-66
2021/10/02 04:11:40;;;;;;;;;;;;;;;12.79;95.00;98645.31;5074479;27;102898;-67
2021/10/02 04:14:08;;;;;;;;;;;;;;;12.87;93.56;98644.66;5071162;27;102602;-67
2021/10/02 04:16:38;;;;;;;;;;;;;;;12.95;93.51;98642.22;5073168;27;102629;-67
2021/10/02 04:19:06;;;;;;;;;;;;;;;12.90;93.26;98644.41;5052440;27;103323;-67
2021/10/02 04:21:34;;;;;;;;;;;;;;;12.90;93.40;98633.81;5074959;27;103287;-66
2021/10/02 04:24:02;;;;;;;;;;;;;;;12.92;93.57;98631.03;5068876;27;102902;-67
2021/10/02 04:26:29;;;;;;;;;;;;;;;12.92;93.22;98626.56;5072581;27;104124;-67
2021/10/02 04:28:57;;;;;;;;;;;;;;;12.84;94.17;98639.63;5071466;27;103254;-65
2021/10/02 04:31:25;;;;;;;;;;;;;;;12.83;94.41;98634.47;5073857;27;103146;-65
2021/10/02 04:33:54;;;;;;;;;;;;;;;12.80;94.91;98632.88;5075540;27;102642;-68
2021/10/02 04:36:22;;;;;;;;;;;;;;;12.57;96.58;98636.59;5053163;27;102730;-68
2021/10/02 04:38:50;;;;;;;;;;;;;;;12.15;98.84;98635.59;5069530;27;104205;-65
2021/10/02 04:41:18;;;;;;;;;;;;;;;12.06;100.00;98625.72;5047990;27;103266;-64
2021/10/02 04:43:46;;;;;;;;;;;;;;;12.07;100.00;98633.53;5069062;27;103006;-65
2021/10/02 04:46:14;;;;;;;;;;;;;;;12.24;99.18;98634.00;5074452;27;102671;-64
2021/10/02 04:48:43;;;;;;;;;;;;;;;12.42;97.60;98635.16;5070752;27;103116;-65
2021/10/02 04:51:12;;;;;;;;;;;;;;;12.38;97.77;98631.91;5076570;27;103219;-66
2021/10/02 04:53:40;;;;;;;;;;;;;;;12.28;98.16;98636.28;5080586;27;102949;-65
2021/10/02 04:56:11;;;;;;;;;;;;;;;12.35;98.12;98641.94;5074565;27;102694;-65
2021/10/02 04:58:39;;;;;;;;;;;;;;;12.14;99.12;98649.78;5073514;27;103210;-68
2021/10/02 05:01:08;;;;;;;;;;;;;;;12.23;99.50;98646.41;5077484;27;103694;-68
2021/10/02 05:03:37;;;;;;;;;;;;;;;12.24;98.92;98644.59;5077907;27;102657;-67
2021/10/02 05:06:05;;;;;;;;;;;;;;;12.10;99.65;98638.56;5074986;27;102694;-67
2021/10/02 05:08:35;;;;;;;;;;;;;;;12.06;100.00;98641.59;5058867;27;103218;-64
2021/10/02 05:11:04;;;;;;;;;;;;;;;12.10;100.00;98643.88;5073145;27;103323;-64
2021/10/02 05:13:34;;;;;;;;;;;;;;;12.15;99.58;98643.53;5074970;27;102713;-65
2021/10/02 05:16:02;;;;;;;;;;;;;;;12.31;99.15;98645.78;5075829;27;104056;-65
2021/10/02 05:18:31;;;;;;;;;;;;;;;12.41;98.13;98641.41;5052205;27;104605;-65
2021/10/02 05:20:59;;;;;;;;;;;;;;;12.33;97.85;98638.53;5078897;27;103201;-68
2021/10/02 05:23:28;;;;;;;;;;;;;;;12.36;98.16;98639.16;5079765;27;102715;-64
2021/10/02 05:26:01;;;;;;;;;;;;;;;12.21;99.16;98630.63;5054555;27;102660;-65
2021/10/02 05:28:28;;;;;;;;;;;;;;;12.19;99.41;98632.56;5074400;27;103311;-68
2021/10/02 05:30:56;;;;;;;;;;;;;;;12.24;99.27;98623.41;5056328;27;103150;-62
2021/10/02 05:33:24;;;;;;;;;;;;;;;12.13;100.00;98627.75;5076901;27;102670;-63
2021/10/02 05:35:53;;;;;;;;;;;;;;;12.13;99.88;98617.16;5076128;27;104074;-63
2021/10/02 05:38:21;;;;;;;;;;;;;;;11.96;100.00;98615.00;5071102;27;103093;-63
2021/10/02 05:40:49;;;;;;;;;;;;;;;11.91;100.00;98611.88;5075715;27;103143;-67
2021/10/02 05:43:19;;;;;;;;;;;;;;;11.95;100.00;98613.34;5080370;27;102767;-67
2021/10/02 05:45:46;;;;;;;;;;;;;;;12.01;100.00;98602.22;5077781;27;103085;-63
2021/10/02 05:48:15;;;;;;;;;;;;;;;12.23;100.00;98606.69;5077678;27;103252;-63
2021/10/02 05:50:45;;;;;;;;;;;;;;;12.43;99.59;98599.75;5079245;27;103267;-67
2021/10/02 05:53:13;;;;;;;;;;;;;;;12.60;98.58;98601.88;5075645;27;102962;-63
2021/10/02 05:55:41;;;;;;;;;;;;;;;12.60;97.40;98594.75;5069935;27;102661;-63
2021/10/02 05:58:09;;;;;;;;;;;;;;;12.38;99.22;98604.59;5076916;27;103203;-63
2021/10/02 06:00:38;;;;;;;;;;;;;;;12.54;98.96;98608.53;5074652;27;103128;-68
2021/10/02 06:03:06;;;;;;;;;;;;;;;12.56;98.14;98603.94;5069195;27;103056;-68
2021/10/02 06:05:34;;;;;;;;;;;;;;;12.74;97.54;98602.41;5058023;27;102782;-65
2021/10/02 06:08:03;;;;;;;;;;;;;;;12.96;97.06;98606.78;5071130;27;103351;-68
2021/10/02 06:10:31;;;;;;;;;;;;;;;13.14;95.65;98605.28;5072811;27;103130;-68
2021/10/02 06:12:59;;;;;;;;;;;;;;;13.16;94.96;98600.69;5073496;27;103037;-67
2021/10/02 06:15:27;;;;;;;;;;;;;;;13.21;94.56;98603.81;5078893;27;103910;-68
2021/10/02 06:17:56;;;;;;;;;;;;;;;13.43;94.13;98596.66;5054832;27;103049;-68
2021/10/02 06:20:25;;;;;;;;;;;;;;;13.49;93.40;98594.31;5073959;27;103180;-69
2021/10/02 06:22:53;;;;;;;;;;;;;;;13.34;94.58;98604.44;5054746;27;103817;-68
2021/10/02 06:25:21;;;;;;;;;;;;;;;13.27;94.54;98600.63;5073401;27;102703;-68
2021/10/02 06:27:49;;;;;;;;;;;;;;;13.28;94.55;98604.94;5076668;27;103288;-68
2021/10/02 06:30:17;;;;;;;;;;;;;;;13.39;95.21;98609.34;5072404;27;103338;-68
2021/10/02 06:32:45;;;;;;;;;;;;;;;13.46;94.13;98604.34;5071671;27;102610;-64
2021/10/02 06:35:15;;;;;;;;;;;;;;;13.46;93.99;98609.66;5075823;27;103932;-64
2021/10/02 06:37:44;;;;;;;;;;;;;;;13.49;93.82;98604.94;5050596;27;103341;-64
2021/10/02 06:40:13;;;;;;;;;;;;;;;13.53;93.31;98610.84;5072108;27;102982;-64
2021/10/02 06:42:41;;;;;;;;;;;;;;;13.57;93.73;98610.44;5051491;27;102640;-64
2021/10/02 06:45:10;;;;;;;;;;;;;;;13.61;93.94;98609.22;5073370;27;103170;-65
2021/10/02 06:47:38;;;;;;;;;;;;;;;13.80;93.13;98606.66;5068216;27;103803;-65
2021/10/02 06:50:06;;;;;;;;;;;;;;;13.94;92.21;98594.81;5052222;27;103300;-64
2021/10/02 06:52:36;;;;;;;;;;;;;;;13.94;92.42;98592.16;5075695;27;102680;-64
2021/10/02 06:55:06;;;;;;;;;;;;;;;14.05;92.10;98596.53;5071809;27;102800;-65
2021/10/02 06:57:34;;;;;;;;;;;;;;;14.16;91.18;98605.22;5072739;27;104055;-64
2021/10/02 07:00:03;;;;;;;;;;;;;;;14.29;90.39;98594.34;5074480;27;102946;-68
2021/10/02 07:02:31;;;;;;;4.93;4.10;;;;;;;14.45;89.09;98600.03;5055273;27;102957;-68
2021/10/02 07:05:00;;;;;;;9.50;7.70;;;;;;;14.56;88.66;98601.72;5056476;27;104199;-68
2021/10/02 07:07:28;;;;;;;9.77;8.40;;;;;;;14.63;87.77;98594.84;5075562;27;103510;-68
2021/10/02 07:09:57;;;;;;;9.47;8.43;;;;;;;14.61;88.19;98605.63;5072164;27;103300;-68
2021/10/02 07:12:26;;;;;;;7.87;6.57;;;;;;;14.87;86.46;98605.94;5076286;27;102713;-68
2021/10/02 07:14:54;;;;;;;8.73;6.43;;;;;;;14.83;87.29;98602.72;5073572;27;102649;-65
2021/10/02 07:17:22;;;;;;;;;;;;;;;15.05;86.72;98609.56;5074317;27;103268;-65
2021/10/02 07:19:50;;;;;;;;;;;;;;;15.31;84.86;98602.69;5076087;27;103192;-64
2021/10/02 07:22:18;;;;;;;;;;;;;;;15.39;83.71;98608.13;5076575;27;102754;-68
2021/10/02 07:24:46;;;;;;;;;;;;;;;15.13;85.78;98612.34;5073621;27;102752;-67
2021/10/02 07:27:15;;;;;;;;;;;;;;;15.21;84.41;98609.84;5073879;27;103227;-69
2021/10/02 07:29:44;;;;;;;;;;;;;;;15.51;84.22;98619.50;5071341;27;102929;-68
2021/10/02 07:32:12;;;;;;;;;;;;;;;15.08;85.90;98617.25;5064482;27;102701;-64
2021/10/02 07:34:40;;;;;;;;;;;;;;;15.12;86.17;98615.16;5059106;27;103064;-63
2021/10/02 07:37:08;;;;;;;;;;;;;;;15.47;84.70;98610.94;5067017;27;104087;-63
2021/10/02 07:39:35;;;;;;;;;;;;;;;15.58;83.85;98607.25;5051935;27;103177;-65
2021/10/02 07:42:04;;;;;;;;;;;;;;;15.75;82.28;98603.03;5074055;27;102548;-64
2021/10/02 07:44:34;;;;;;;;;;;;;;;16.01;81.93;98609.34;5071940;27;103901;-64
2021/10/02 07:47:03;;;;;;;;;;;;;;;16.70;80.04;98609.72;5069096;27;104479;-64
2021/10/02 07:49:33;;;;;;;;;;;;;;;17.63;75.76;98596.66;5075825;27;103135;-64
2021/10/02 07:52:01;;;;;;;;;;;;;;;17.84;75.83;98583.75;5070745;27;102600;-70
2021/10/02 07:54:29;;;;;;;;;;;;;;;17.51;75.75;98599.72;5077433;27;102675;-69
2021/10/02 07:56:58;;;;;;;;;;;;;;;17.05;76.56;98603.53;5073426;27;103223;-65
2021/10/02 07:59:26;;;;;;;;;;;;;;;17.51;76.01;98595.22;5073587;27;103171;-65
2021/10/02 08:01:57;;;;;;;6.73;6.13;;;;;;;17.95;75.13;98596.00;5057716;27;102683;-65
2021/10/02 08:04:26;;;;;;;9.27;7.03;;;;;;;18.21;73.23;98596.81;5071769;27;102921;-68
2021/10/02 08:06:55;;;;;;;8.90;7.07;;;;;;;18.29;72.37;98588.81;5070527;27;104118;-65
2021/10/02 08:09:24;;;;;;;8.57;6.83;;;;;;;18.56;72.28;98594.91;5071870;27;103230;-65
2021/10/02 08:11:53;;;;;;;6.67;6.07;;;;;;;19.08;71.52;98589.16;5072172;27;102704;-65
2021/10/02 08:14:21;;;;;;;9.27;7.28;;;;;;;19.22;70.14;98581.44;5074335;27;104415;-69
2021/10/02 08:16:52;;;;;;;7.97;6.35;;;;;;;19.18;70.32;98585.47;5068222;27;103037;-65
2021/10/02 08:19:22;;;;;;;8.13;6.32;;;;;;;19.26;68.85;98583.63;5052723;27;103046;-69
2021/10/02 08:21:52;;;;;;;7.93;6.78;;;;;;;19.81;68.98;98585.59;5077913;27;102613;-65
2021/10/02 08:24:21;;;;;;;6.95;6.20;;;;;;;20.27;67.85;98589.31;5056051;27;103800;-65
2021/10/02 08:26:52;;;;;;;7.15;6.07;;;;;;;20.15;66.87;98592.31;5076094;27;103257;-65
2021/10/02 08:29:23;;;;;;;6.88;5.72;;;;;;;20.37;66.01;98595.28;5080551;27;103249;-65
2021/10/02 08:31:51;;;;;;;;;;;;;;;20.27;63.87;98598.19;5082223;27;102651;-66
2021/10/02 08:34:26;;;;;;;;;;;;;;;20.42;66.34;98599.13;5072287;27;102734;-65
2021/10/02 08:36:54;;;;;;;;;;;;;;;20.43;63.63;98594.59;5073220;27;103273;-66
2021/10/02 08:39:22;;;;;;;;;;;;;;;21.13;61.41;98582.75;5071431;27;102948;-69
2021/10/02 08:41:50;;;;;;;;;;;;;;;21.54;60.16;98582.38;5074555;27;103062;-70
2021/10/02 08:44:20;;;;;;;;;;;;;;;21.57;59.16;98585.56;5071423;27;102709;-65
2021/10/02 08:46:50;;;;;;;;;;;;;;;21.37;60.78;98577.16;5060376;27;103244;-65
2021/10/02 08:49:27;;;;;;;;;;;;;;;21.53;59.52;98570.78;5077620;27;103209;-69
2021/10/02 08:51:57;;;;;;;;;;;;;;;21.26;60.34;98568.72;5078590;27;102614;-66
2021/10/02 08:54:25;;;;;;;;;;;;;;;21.55;59.86;98567.94;5076174;27;103094;-66
2021/10/02 08:56:53;;;;;;;;;;;;;;;21.35;60.98;98573.84;5075249;27;103386;-65
2021/10/02 08:59:22;;;;;;;;;;;;;;;21.61;60.70;98569.91;5074381;27;103222;-70
2021/10/02 09:01:50;;;;;;;;;;;;;;;21.89;58.69;98560.22;5079698;27;103645;-65
2021/10/02 09:04:19;;;;;;;;;;;;;;;21.93;57.25;98554.28;5079069;27;102953;-65
2021/10/02 09:06:47;;;;;;;;;;;;;;;22.58;55.62;98552.56;5076760;27;103290;-64
2021/10/02 09:09:17;;;;;;;;;;;;;;;22.53;56.17;98553.16;5077618;27;103204;-65
2021/10/02 09:11:45;;;;;;;;;;;;;;;21.99;55.02;98541.94;5074895;27;102669;-64
2021/10/02 09:14:13;;;;;;;;;;;;;;;21.93;54.74;98534.59;5077216;27;102854;-69
2021/10/02 09:16:41;;;;;;;;;;;;;;;21.37;56.18;98539.56;5078261;27;103421;-69
2021/10/02 09:19:09;;;;;;;;;;;;;;;21.83;56.42;98537.56;5076918;27;103144;-64
2021/10/02 09:21:42;;;;;;;;;;;;;;;22.02;57.29;98520.03;5077458;27;104799;-69
2021/10/02 09:24:21;;;;;;;;;;;;;;;21.58;54.99;98511.13;5079465;27;103333;-68
2021/10/02 09:26:50;;;;;;;;;;;;;;;21.25;56.13;98516.81;5079095;27;103482;-70
2021/10/02 09:29:18;;;;;;;;;;;;;;;22.14;54.87;98518.56;5077880;27;103143;-69
2021/10/02 09:31:46;;;;;;;;;;;;;;;22.08;54.36;98508.53;5076132;27;102880;-69
2021/10/02 09:34:23;;;;;;;;;;;;;;;21.88;54.25;98512.81;5074728;27;104139;-69
2021/10/02 09:36:52;;;;;;;;;;;;;;;21.87;50.36;98503.06;5069977;27;104083;-69
2021/10/02 09:39:22;;;;;;;;;;;;;;;22.01;50.28;98502.22;5074550;27;103016;-64
2021/10/02 09:41:52;;;;;;;;;;;;;;;22.35;50.95;98507.81;5075023;27;102779;-65
2021/10/02 09:44:24;;;;;;;;;;;;;;;22.34;51.29;98506.13;5074515;27;103191;-64
2021/10/02 09:46:52;;;;;;;;;;;;;;;22.60;49.28;98507.47;5073649;27;103176;-65
2021/10/02 09:49:20;;;;;;;;;;;;;;;22.67;47.71;98500.31;5076134;27;103211;-65
2021/10/02 09:51:48;;;;;;;;;;;;;;;22.68;47.97;98499.31;5056075;27;102693;-65
2021/10/02 09:54:36;;;;;;;;;;;;;;;23.04;47.29;98494.66;5076799;27;103183;-65
2021/10/02 09:57:08;;;;;;;;;;;;;;;23.18;46.90;98490.22;5075493;27;103272;-65
2021/10/02 09:59:36;;;;;;;;;;;;;;;22.99;47.90;98483.63;5077553;27;103746;-65
2021/10/02 10:02:14;;;;;;;;;;;;;;;23.23;46.76;98477.81;5075805;27;102650;-65
2021/10/02 10:04:52;;;;;;;;;;;;;;;22.59;47.07;98462.72;5076066;27;102730;-66
2021/10/02 10:07:21;;;;;;;;;;;;;;;22.92;47.54;98469.28;5079625;27;103677;-65
2021/10/02 10:10:01;;;;;;;;;;;;;;;23.04;47.00;98465.03;5075016;27;103215;-66
2021/10/02 10:12:30;;;;;;;;;;;;;;;23.27;45.82;98452.13;5076426;27;102796;-70
2021/10/02 10:14:58;;;;;;;;;;;;;;;23.25;46.22;98448.81;5070108;27;102699;-70
2021/10/02 10:17:32;;;;;;;;;;;;;;;23.36;45.02;98445.56;5042203;27;104189;-70
2021/10/02 10:20:04;;;;;;;;;;;;;;;23.09;45.34;98439.16;5078521;27;103214;-70
2021/10/02 10:22:32;;;;;;;;;;;;;;;23.38;44.10;98438.13;5075970;27;103959;-70
2021/10/02 10:25:04;;;;;;;;;;;;;;;23.34;44.92;98434.16;5077391;27;102847;-70
2021/10/02 10:27:34;;;;;;;;;;;;;;;23.24;45.18;98436.38;5075673;27;103750;-70
2021/10/02 10:30:09;;;;;;;;;;;;;;;23.78;45.19;98431.09;5079312;27;103358;-70
2021/10/02 10:32:38;;;;;;;;;;;;;;;23.60;45.79;98431.66;5073518;27;102672;-70
2021/10/02 10:35:07;;;;;;;;;;;;;;;23.53;45.85;98422.69;5070418;27;102677;-66
2021/10/02 10:37:35;;;;;;;;;;;;;;;23.94;45.63;98430.75;5071986;27;104064;-69
2021/10/02 10:40:05;;;;;;;;;;;;;;;23.79;45.97;98429.22;5073472;27;103184;-68
2021/10/02 10:42:33;;;;;;;;;;;;;;;23.49;45.33;98418.72;5072299;27;102643;-74
2021/10/02 10:45:01;;;;;;;;;;;;;;;23.65;46.28;98421.09;5075492;27;104150;-75
2021/10/02 10:47:29;;;;;;;;;;;;;;;23.86;45.33;98432.81;5074417;27;104407;-67
2021/10/02 10:49:57;;;;;;;;;;;;;;;23.84;45.05;98418.66;5075005;27;103109;-68
2021/10/02 10:52:25;;;;;;;;;;;;;;;23.71;45.82;98413.22;5073665;27;102799;-67
2021/10/02 10:54:54;;;;;;;;;;;;;;;23.76;46.08;98424.25;5074595;27;103033;-62
2021/10/02 10:57:39;;;;;;;;;;;;;;;23.31;45.76;98412.97;5068075;27;103667;-62
2021/10/02 11:00:09;;;;;;;;;;;;;;;23.82;45.56;98412.66;5073141;27;103203;-62
2021/10/02 11:02:48;;;;;;;;;;;;;;;24.07;45.77;98401.13;5073757;27;102823;-62
2021/10/02 11:05:49;;;;;;;;;;;;;;;24.16;44.95;98404.50;5073194;27;102935;-65
2021/10/02 11:08:22;;;;;;;;;;;;;;;24.48;44.38;98392.91;4971570;28;104553;-67
2021/10/02 11:10:54;;;;;;;;;;;;;;;24.67;43.89;98392.09;4969695;28;103351;-67
2021/10/02 11:13:43;;;;;;;;;;;;;;;24.84;44.43;98381.75;5020416;27;102891;-67
2021/10/02 11:16:30;;;;;;;;;;;;;;;24.86;43.54;98384.22;5071946;27;102827;-64
2021/10/02 11:18:58;;;;;;;;;;;;;;;24.65;43.74;98377.13;5072364;27;103227;-69
2021/10/02 11:21:30;;;;;;;;;;;;;;;24.63;44.42;98371.94;5067842;27;103172;-70
2021/10/02 11:24:10;;;;;;;;;;;;;;;25.04;44.07;98370.94;5074697;27;102789;-71
2021/10/02 11:26:42;;;;;;;;;;;;;;;24.98;42.84;98369.91;5068640;27;102722;-71
2021/10/02 11:29:28;;;;;;;;;;;;;;;25.09;42.97;98363.00;5067837;27;103351;-71
2021/10/02 11:32:14;;;;;;;;;;;;;;;25.01;43.66;98360.53;5067691;27;103198;-72
2021/10/02 11:34:57;;;;;;;;;;;;;;;24.91;43.61;98335.78;5071623;27;102649;-69
2021/10/02 11:37:26;;;;;;;;;;;;;;;24.72;43.45;98343.69;5067770;27;104423;-69
2021/10/02 11:39:54;;;;;;;;;;;;;;;24.70;43.16;98337.66;5067791;27;103268;-69
2021/10/02 11:42:22;;;;;;;;;;;;;;;24.96;43.00;98330.59;5068589;27;103190;-68
2021/10/02 11:44:52;;;;;;;;;;;;;;;25.75;42.14;98336.59;5064215;27;102797;-68
2021/10/02 11:47:27;;;;;;;;;;;;;;;26.27;41.56;98319.25;5068323;27;103005;-68
2021/10/02 11:50:14;;;;;;;;;;;;;;;26.17;41.46;98318.88;5050965;27;104120;-67
2021/10/02 11:52:57;;;;;;;;;;;;;;;26.00;41.53;98312.31;5057619;27;103169;-68
2021/10/02 11:55:43;;;;;;;;;;;;;;;25.26;42.28;98302.84;5076826;27;102582;-69
2021/10/02 11:58:14;;;;;;;;;;;;;;;26.01;41.49;98303.16;5034627;27;102846;-69
2021/10/02 12:00:46;;;;;;;;;;;;;;;26.44;40.92;98293.28;5066208;27;103555;-68
2021/10/02 12:03:15;;;;;;;;;;;;;;;26.27;40.15;98295.72;5070819;27;103188;-68
2021/10/02 12:05:44;;;;;;;;;;;;;;;25.80;40.60;98290.78;5066994;27;103273;-68
2021/10/02 12:08:12;;;;;;;;;;;;;;;26.25;41.12;98294.25;5066297;27;102764;-68
2021/10/02 12:10:53;;;;;;;;;;;;;;;26.32;39.86;98278.78;5061033;27;103244;-69
2021/10/02 12:13:23;;;;;;;;;;;;;;;26.03;41.27;98272.09;5065136;27;103270;-69
2021/10/02 12:15:58;;;;;;;;;;;;;;;26.18;40.88;98277.25;5018459;27;102951;-67
2021/10/02 12:18:26;;;;;;;;;;;;;;;25.80;41.00;98256.44;5009918;28;103127;-67
2021/10/02 12:20:54;;;;;;;;;;;;;;;26.08;41.07;98252.53;5008785;28;103466;-67
2021/10/02 12:23:22;;;;;;;;;;;;;;;25.97;41.76;98253.19;5009059;27;103272;-67
2021/10/02 12:25:49;;;;;;;;;;;;;;;25.71;40.97;98244.22;5008709;28;102664;-70
2021/10/02 12:28:23;;;;;;;;;;;;;;;25.82;41.21;98242.72;5008897;27;104073;-67
2021/10/02 12:30:52;;;;;;;;;;;;;;;25.61;41.65;98238.47;5006755;28;103237;-68
2021/10/02 12:33:22;;;;;;;;;;;;;;;26.12;40.43;98240.19;5009926;28;103315;-68
2021/10/02 12:35:50;;;;;;;;;;;;;;;25.85;40.51;98240.38;5009405;28;102697;-67
2021/10/02 12:38:21;;;;;;;;;;;;;;;25.48;41.33;98230.44;5023209;27;102858;-67
2021/10/02 12:40:52;;;;;;;;;;;;;;;25.32;40.72;98228.19;5032885;27;103417;-67
2021/10/02 12:43:20;;;;;;;;;;;;;;;25.04;41.65;98214.19;5027145;27;103252;-67
2021/10/02 12:45:49;;;;;;;;;;;;;;;24.78;43.69;98221.31;5029610;27;103515;-68
2021/10/02 12:48:18;;;;;;;;;;;;;;;24.59;43.38;98216.78;5034772;27;104095;-67
2021/10/02 12:50:46;;;;;;;;;;;;;;;24.55;44.35;98220.13;5037452;27;104063;-66
2021/10/02 12:53:15;;;;;;;;;;;;;;;24.58;44.78;98212.44;5032901;27;103228;-67
2021/10/02 12:55:43;;;;;;;;;;;;;;;24.64;43.67;98213.47;5039849;27;102755;-67
2021/10/02 12:58:14;;;;;;;;;;;;;;;24.57;43.96;98210.75;5039680;27;102573;-67
2021/10/02 13:00:43;;;;;;;;;;;;;;;24.74;44.42;98205.72;5039720;27;103251;-66
2021/10/02 13:03:14;;;;;;;;;;;;;;;25.04;43.48;98203.38;5035954;27;103369;-67
2021/10/02 13:05:42;;;;;;;;;;;;;;;25.36;43.41;98195.09;5037054;27;103010;-67
2021/10/02 13:08:14;;;;;;;;;;;;;;;25.14;43.55;98192.94;5042573;27;102841;-68
2021/10/02 13:10:42;;;;;;;;;;;;;;;24.98;43.79;98188.84;5034767;27;103093;-67
2021/10/02 13:13:11;;;;;;;;;;;;;;;25.16;43.52;98180.03;5036943;27;102968;-68
2021/10/02 13:15:40;;;;;;;;;;;;;;;25.28;42.69;98189.97;5039842;27;102643;-67
2021/10/02 13:18:09;;;;;;;;;;;;;;;24.92;43.06;98189.72;5035741;27;104032;-68
2021/10/02 13:20:49;;;;;;;;;;;;;;;25.00;43.56;98185.94;5041267;27;103262;-67
2021/10/02 13:23:19;;;;;;;;;;;;;;;25.13;42.45;98180.44;5039575;27;102919;-67
2021/10/02 13:25:48;;;;;;;;;;;;;;;25.06;42.53;98175.09;5030541;27;102792;-69
2021/10/02 13:28:21;;;;;;;;;;;;;;;25.11;42.45;98166.34;5041752;27;102699;-69
2021/10/02 13:30:49;;;;;;;;;;;;;;;25.30;43.22;98165.41;5041263;27;104096;-69
2021/10/02 13:33:17;;;;;;;;;;;;;;;24.93;42.62;98163.50;5040666;27;105537;-69